createdAt,value
2019-02-03T00:00:31.548Z,99188.00
2019-02-03T00:05:32.905Z,99203.00
2019-02-03T00:10:34.241Z,99218.00
2019-02-03T00:15:35.491Z,99219.00
2019-02-03T00:20:37.157Z,99232.00
2019-02-03T00:25:38.393Z,99231.00
2019-02-03T00:30:39.687Z,99247.00
2019-02-03T00:35:40.928Z,99253.00
2019-02-03T00:40:42.188Z,99256.00
2019-02-03T00:45:43.721Z,99262.00
2019-02-03T00:50:45.094Z,99275.00
2019-02-03T00:55:46.345Z,99285.00
2019-02-03T01:00:47.825Z,99287.00
2019-02-03T01:05:49.282Z,99294.00
2019-02-03T01:10:50.751Z,99298.00
2019-02-03T01:15:51.991Z,99314.00
2019-02-03T01:20:53.465Z,99297.00
2019-02-03T01:25:54.712Z,99306.00
2019-02-03T01:30:55.956Z,99331.00
2019-02-03T01:35:57.189Z,99332.00
2019-02-03T01:40:58.439Z,99341.00
2019-02-03T01:45:59.750Z,99331.00
2019-02-03T01:51:01.011Z,99345.00
2019-02-03T01:56:02.376Z,99355.00
2019-02-03T02:01:04.234Z,99345.00
2019-02-03T02:06:05.487Z,99344.00
2019-02-03T02:11:06.723Z,99326.00
2019-02-03T02:16:07.972Z,99333.00
2019-02-03T02:21:09.240Z,99350.00
2019-02-03T02:26:10.488Z,99346.00
2019-02-03T02:31:12.561Z,99355.00
2019-02-03T02:36:13.903Z,99349.00
2019-02-03T02:41:15.159Z,99346.00
2019-02-03T02:46:16.393Z,99339.00
2019-02-03T02:51:17.661Z,99351.00
2019-02-03T02:56:18.924Z,99387.00
2019-02-03T03:01:20.188Z,99428.00
2019-02-03T03:06:21.534Z,99445.00
2019-02-03T03:11:22.801Z,99464.00
2019-02-03T03:16:24.070Z,99477.00
2019-02-03T03:21:25.349Z,99500.00
2019-02-03T03:26:26.591Z,99514.00
2019-02-03T03:31:29.763Z,99528.00
2019-02-03T03:36:31.019Z,99534.00
2019-02-03T03:41:32.477Z,99555.00
2019-02-03T03:46:33.730Z,99554.00
2019-02-03T03:51:35.006Z,99551.00
2019-02-03T03:56:36.266Z,99569.00
2019-02-03T04:01:37.625Z,99569.00
2019-02-03T04:06:39.077Z,99587.00
2019-02-03T04:11:40.416Z,99594.00
2019-02-03T04:16:41.698Z,99602.00
2019-02-03T04:21:42.910Z,99610.00
2019-02-03T04:26:44.164Z,99605.00
2019-02-03T04:31:45.414Z,99623.00
2019-02-03T04:36:46.650Z,99621.00
2019-02-03T04:41:47.910Z,99638.00
2019-02-03T04:46:49.172Z,99627.00
2019-02-03T04:51:50.414Z,99637.00
2019-02-03T04:56:51.646Z,99636.00
2019-02-03T05:01:52.899Z,99635.00
2019-02-03T05:06:54.146Z,99630.00
2019-02-03T05:11:55.438Z,99632.00
2019-02-03T05:16:56.671Z,99641.00
2019-02-03T05:21:57.915Z,99646.00
2019-02-03T05:26:59.178Z,99660.00
2019-02-03T05:32:00.868Z,99667.00
2019-02-03T05:37:02.110Z,99661.00
2019-02-03T05:42:03.896Z,99682.00
2019-02-03T05:47:05.145Z,99679.00
2019-02-03T05:52:06.436Z,99681.00
2019-02-03T05:57:07.661Z,99696.00
2019-02-03T06:02:10.149Z,99708.00
2019-02-03T06:07:11.529Z,99710.00
2019-02-03T06:12:12.874Z,99710.00
2019-02-03T06:17:16.466Z,99728.00
2019-02-03T06:22:17.707Z,99737.00
2019-02-03T06:27:18.954Z,99746.00
2019-02-03T06:32:20.242Z,99761.00
2019-02-03T06:37:21.482Z,99769.00
2019-02-03T06:42:22.708Z,99783.00
2019-02-03T06:47:24.476Z,99794.00
2019-02-03T06:52:25.725Z,99795.00
2019-02-03T06:57:28.962Z,99820.00
2019-02-03T07:02:30.132Z,99835.00
2019-02-03T07:07:34.480Z,99851.00
2019-02-03T07:12:37.730Z,99857.00
2019-02-03T07:17:38.983Z,99854.00
2019-02-03T07:22:41.515Z,99861.00
2019-02-03T07:27:43.036Z,99870.00
2019-02-03T07:32:46.198Z,99891.00
2019-02-03T07:37:47.429Z,99905.00
2019-02-03T07:42:48.660Z,99917.00
2019-02-03T07:47:52.694Z,99928.00
2019-02-03T07:52:55.840Z,99941.00
2019-02-03T07:57:57.180Z,99959.00
2019-02-03T08:02:58.521Z,99965.00
2019-02-03T08:07:59.753Z,99973.00
2019-02-03T08:13:01.324Z,99983.00
2019-02-03T08:18:03.576Z,99993.00
2019-02-03T08:23:05.079Z,99989.00
2019-02-03T08:28:06.335Z,100005.00
2019-02-03T08:33:07.586Z,100009.00
2019-02-03T08:38:08.832Z,100024.00
2019-02-03T08:43:10.088Z,100030.00
2019-02-03T08:48:11.355Z,100034.00
2019-02-03T08:53:12.904Z,100038.00
2019-02-03T08:58:14.146Z,100049.00
2019-02-03T09:03:15.395Z,100044.00
2019-02-03T09:08:16.622Z,100060.00
2019-02-03T09:13:17.973Z,100064.00
2019-02-03T09:18:20.032Z,100085.00
2019-02-03T09:23:21.286Z,100080.00
2019-02-03T09:28:22.553Z,100091.00
2019-02-03T09:33:23.822Z,100102.00
2019-02-03T09:38:25.068Z,100107.00
2019-02-03T09:43:26.601Z,100110.00
2019-02-03T09:48:27.878Z,100123.00
2019-02-03T09:53:29.123Z,100133.00
2019-02-03T09:58:30.396Z,100141.00
2019-02-03T10:03:31.651Z,100152.00
2019-02-03T10:08:40.479Z,100155.00
2019-02-03T10:13:36.148Z,100163.00
2019-02-03T10:18:37.463Z,100161.00
2019-02-03T10:23:38.841Z,100166.00
2019-02-03T10:28:40.136Z,100170.00
2019-02-03T10:33:41.509Z,100157.00
2019-02-03T10:38:42.779Z,100168.00
2019-02-03T10:43:44.036Z,100165.00
2019-02-03T10:48:45.305Z,100177.00
2019-02-03T10:53:46.548Z,100178.00
2019-02-03T10:58:47.937Z,100188.00
2019-02-03T11:03:49.203Z,100194.00
2019-02-03T11:08:50.674Z,100205.00
2019-02-03T11:13:52.240Z,100207.00
2019-02-03T11:18:53.510Z,100213.00
2019-02-03T11:23:54.768Z,100216.00
2019-02-03T11:28:56.349Z,100212.00
2019-02-03T11:33:57.639Z,100228.00
2019-02-03T11:38:58.953Z,100225.00
2019-02-03T11:44:00.211Z,100230.00
2019-02-03T11:49:01.761Z,100231.00
2019-02-03T11:54:03.557Z,100236.00
2019-02-03T11:59:04.925Z,100233.00
2019-02-03T12:04:06.229Z,100253.00
2019-02-03T12:09:07.946Z,100255.00
2019-02-03T12:14:09.216Z,100262.00
2019-02-03T12:19:10.490Z,100272.00
2019-02-03T12:24:11.768Z,100276.00
2019-02-03T12:29:13.039Z,100276.00
2019-02-03T12:34:14.362Z,100284.00
2019-02-03T12:39:15.611Z,100287.00
2019-02-03T12:44:17.274Z,100288.00
2019-02-03T12:49:18.551Z,100299.00
2019-02-03T12:54:19.814Z,100299.00
2019-02-03T12:59:21.094Z,100306.00
2019-02-03T13:04:22.388Z,100320.00
2019-02-03T13:09:23.646Z,100322.00
2019-02-03T13:14:24.903Z,100335.00
2019-02-03T13:19:26.155Z,100350.00
2019-02-03T13:24:27.424Z,100358.00
2019-02-03T13:29:28.708Z,100359.00
2019-02-03T13:34:30.365Z,100362.00
2019-02-03T13:39:31.839Z,100371.00
2019-02-03T13:44:33.089Z,100380.00
2019-02-03T13:49:34.373Z,100389.00
2019-02-03T13:54:35.637Z,100406.00
2019-02-03T13:59:38.946Z,100403.00
2019-02-03T14:04:40.213Z,100411.00
2019-02-03T14:09:41.473Z,100419.00
2019-02-03T14:14:42.754Z,100425.00
2019-02-03T14:19:44.017Z,100428.00
2019-02-03T14:24:45.270Z,100447.00
2019-02-03T14:29:46.940Z,100446.00
2019-02-03T14:34:48.248Z,100458.00
2019-02-03T14:39:49.538Z,100468.00
2019-02-03T14:44:50.894Z,100479.00
2019-02-03T14:49:52.393Z,100472.00
2019-02-03T14:54:53.633Z,100491.00
2019-02-03T14:59:55.831Z,100480.00
2019-02-03T15:04:57.130Z,100495.00
2019-02-03T15:09:58.372Z,100501.00
2019-02-03T15:14:59.652Z,100511.00
2019-02-03T15:20:01.126Z,100514.00
2019-02-03T15:25:06.293Z,100516.00
2019-02-03T15:30:23.997Z,100533.00
2019-02-03T15:35:25.473Z,100541.00
2019-02-03T15:40:27.050Z,100544.00
2019-02-03T15:45:28.415Z,100545.00
2019-02-03T15:50:30.193Z,100558.00
2019-02-03T15:55:36.260Z,100572.00
2019-02-03T16:00:42.329Z,100593.00
2019-02-03T16:05:43.666Z,100596.00
2019-02-03T16:10:44.943Z,100608.00
2019-02-03T16:15:46.367Z,100619.00
2019-02-03T16:20:47.660Z,100629.00
2019-02-03T16:25:48.903Z,100638.00
2019-02-03T16:30:50.204Z,100650.00
2019-02-03T16:35:51.498Z,100654.00
2019-02-03T16:40:52.827Z,100668.00
2019-02-03T16:45:54.196Z,100669.00
2019-02-03T16:50:55.519Z,100678.00
2019-02-03T16:55:56.760Z,100682.00
2019-02-03T17:00:58.161Z,100704.00
2019-02-03T17:05:59.401Z,100717.00
2019-02-03T17:11:00.749Z,100722.00
2019-02-03T17:16:02.931Z,100742.00
2019-02-03T17:21:04.164Z,100738.00
2019-02-03T17:26:05.837Z,100758.00
2019-02-03T17:31:07.166Z,100768.00
2019-02-03T17:36:08.714Z,100774.00
2019-02-03T17:41:09.966Z,100770.00
2019-02-03T17:46:11.515Z,100777.00
2019-02-03T17:51:12.966Z,100790.00
2019-02-03T17:56:14.213Z,100790.00
2019-02-03T18:01:15.580Z,100804.00
2019-02-03T18:06:17.087Z,100818.00
2019-02-03T18:11:18.479Z,100832.00
2019-02-03T18:16:19.779Z,100859.00
2019-02-03T18:21:21.048Z,100856.00
2019-02-03T18:26:22.327Z,100855.00
2019-02-03T18:31:23.792Z,100862.00
2019-02-03T18:36:25.099Z,100875.00
2019-02-03T18:41:26.465Z,100871.00
2019-02-03T18:46:27.737Z,100869.00
2019-02-03T18:51:28.991Z,100885.00
2019-02-03T18:56:30.664Z,100894.00
2019-02-03T19:01:31.932Z,100897.00
2019-02-03T19:06:33.204Z,100913.00
2019-02-03T19:11:34.467Z,100925.00
2019-02-03T19:16:35.775Z,100929.00
2019-02-03T19:21:37.129Z,100935.00
2019-02-03T19:26:38.381Z,100944.00
2019-02-03T19:31:39.661Z,100939.00
2019-02-03T19:36:40.927Z,100953.00
2019-02-03T19:41:42.192Z,100969.00
2019-02-03T19:46:43.472Z,100980.00
2019-02-03T19:51:44.759Z,100976.00
2019-02-03T19:56:46.067Z,100987.00
2019-02-03T20:01:47.367Z,100987.00
2019-02-03T20:06:48.640Z,101005.00
2019-02-03T20:11:49.934Z,101012.00
2019-02-03T20:16:51.266Z,101019.00
2019-02-03T20:21:52.539Z,101030.00
2019-02-03T20:26:54.001Z,101043.00
2019-02-03T20:31:55.349Z,101051.00
2019-02-03T20:36:56.647Z,101051.00
2019-02-03T20:41:57.919Z,101053.00
2019-02-03T20:46:59.235Z,101057.00
2019-02-03T20:52:01.233Z,101066.00
2019-02-03T20:57:02.840Z,101075.00
2019-02-03T21:02:04.301Z,101077.00
2019-02-03T21:07:05.778Z,101077.00
2019-02-03T21:12:07.173Z,101074.00
2019-02-03T21:17:08.430Z,101084.00
2019-02-03T21:22:09.906Z,101096.00
2019-02-03T21:27:11.161Z,101087.00
2019-02-03T21:32:12.422Z,101103.00
2019-02-03T21:37:13.828Z,101112.00
2019-02-03T21:42:15.160Z,101118.00
2019-02-03T21:47:16.427Z,101121.00
2019-02-03T21:52:17.719Z,101112.00
2019-02-03T21:57:19.277Z,101125.00
2019-02-03T22:02:20.515Z,101129.00
2019-02-03T22:07:21.766Z,101130.00
2019-02-03T22:12:23.183Z,101136.00
2019-02-03T22:17:24.444Z,101139.00
2019-02-03T22:22:26.099Z,101157.00
2019-02-03T22:27:27.359Z,101142.00
2019-02-03T22:32:28.634Z,101157.00
2019-02-03T22:37:29.912Z,101183.00
2019-02-03T22:42:31.144Z,101188.00
2019-02-03T22:47:32.899Z,101194.00
2019-02-03T22:52:34.377Z,101192.00
2019-02-03T22:57:35.634Z,101201.00
2019-02-03T23:02:36.974Z,101199.00
2019-02-03T23:07:38.259Z,101199.00
2019-02-03T23:12:40.032Z,101198.00
2019-02-03T23:17:41.279Z,101198.00
2019-02-03T23:22:42.531Z,101213.00
2019-02-03T23:27:43.794Z,101224.00
2019-02-03T23:32:45.177Z,101226.00
2019-02-03T23:37:46.975Z,101221.00
2019-02-03T23:42:48.374Z,101230.00
2019-02-03T23:47:49.640Z,101228.00
2019-02-03T23:52:50.889Z,101224.00
2019-02-03T23:57:52.131Z,101237.00
